This is the latest recevied weather packets stored in our database for station/object OE3WYC-1. If no packets are shown the sender has not sent any weather packets the latest 10 day(s).
| Time | Temp. | Humidity | Pressure | Rain* | Wind** | Luminosity | Snow |
|---|---|---|---|---|---|---|---|
| 1778151004 | 19.44° C | 50% | 1012.1 hPa | 0 mm | - | - | - |
| 1778149505 | 19.44° C | 51% | 1012.3 hPa | 0 mm | - | - | - |
| 1778149204 | 19.44° C | 52% | 1012.4 hPa | 0 mm | - | - | - |
| 1778145004 | 17.78° C | 55% | 1012.1 hPa | 0 mm | - | - | - |
| 1778143204 | 17.22° C | 55% | 1011.7 hPa | 0 mm | - | - | - |
| 1778140206 | 16.67° C | 58% | 1011.3 hPa | 0 mm | - | - | - |
| 1778138704 | 16.67° C | 59% | 1011.3 hPa | 0 mm | - | - | - |
| 1778137203 | 16.11° C | 60% | 1011.3 hPa | 0 mm | - | - | - |
| 1778136904 | 16.11° C | 60% | 1011.2 hPa | 0 mm | - | - | - |
| 1778134504 | 16.11° C | 61% | 1011 hPa | 0 mm | - | - | - |
| 1778131207 | 15.56° C | 61% | 1010.3 hPa | 0 mm | - | - | - |
| 1778127907 | 15.56° C | 61% | 1009.2 hPa | 0 mm | - | - | - |
| 1778127007 | 15.56° C | 61% | 1009.2 hPa | 0 mm | - | - | - |
| 1778123108 | 15.56° C | 61% | 1008.4 hPa | 0 mm | - | - | - |
| 1778122808 | 15.56° C | 61% | 1008.2 hPa | 0 mm | - | - | - |
| 1778122207 | 16.11° C | 62% | 1008.2 hPa | 0 mm | - | - | - |
| 1778120408 | 16.11° C | 63% | 1008.2 hPa | 0 mm | - | - | - |
| 1778116507 | 16.67° C | 63% | 1007.6 hPa | 0 mm | - | - | - |
| 1778111707 | 17.22° C | 64% | 1007 hPa | 0 mm | - | - | - |
| 1778110207 | 17.22° C | 64% | 1006.9 hPa | 0 mm | - | - | - |
| 1778109307 | 17.78° C | 63% | 1006.9 hPa | 0 mm | - | - | - |
| 1778109007 | 17.78° C | 63% | 1006.9 hPa | 0 mm | - | - | - |
| 1778107807 | 17.78° C | 61% | 1006.5 hPa | 0 mm | - | - | - |
| 1778107208 | 17.78° C | 62% | 1006.3 hPa | 0 mm | - | - | - |
| 1778099107 | 19.44° C | 58% | 1004.2 hPa | 0 mm | - | - | - |
* Rain latest hour (hover to see other rain measurements)
** Current wind speed in m/s (hover to see current wind gust speed)